This is the latest recevied weather packets stored in our database for station/object DL7MAP-13. If no packets are shown the sender has not sent any weather packets the latest 10 day(s).
| Time | Temp. | Humidity | Pressure | Rain* | Wind** | Luminosity | Snow |
|---|---|---|---|---|---|---|---|
| 1777795987 | 22.78° C | 43% | 1008.3 hPa | - | - | - | - |
| 1777795087 | 22.22° C | 44% | 1008.3 hPa | - | - | - | - |
| 1777793287 | 20.56° C | 47% | 1008.3 hPa | - | - | - | - |
| 1777792386 | 19.44° C | 47% | 1008.8 hPa | - | - | - | - |
| 1777791487 | 18.89° C | 48% | 1008.7 hPa | - | - | - | - |
| 1777790587 | 18.33° C | 50% | 1008.7 hPa | - | - | - | - |
| 1777789687 | 18.33° C | 50% | 1008.6 hPa | - | - | - | - |
| 1777788786 | 17.22° C | 52% | 1009 hPa | - | - | - | - |
| 1777787886 | 16.67° C | 54% | 1008.8 hPa | - | - | - | - |
| 1777786987 | 16.11° C | 54% | 1008.6 hPa | - | - | - | - |
| 1777786087 | 16.11° C | 57% | 1009.1 hPa | - | - | - | - |
| 1777785187 | 14.44° C | 62% | 1008.7 hPa | - | - | - | - |
| 1777784287 | 13.33° C | 68% | 1008.6 hPa | - | - | - | - |
| 1777783387 | 11.67° C | 71% | 1008.2 hPa | - | - | - | - |
| 1777782487 | 10.56° C | 74% | 1008.8 hPa | - | - | - | - |
| 1777781586 | 10° C | 75% | 1008.6 hPa | - | - | - | - |
| 1777780687 | 9.44° C | 76% | 1008.4 hPa | - | - | - | - |
| 1777779787 | 10° C | 74% | 1008.5 hPa | - | - | - | - |
| 1777778887 | 10.56° C | 73% | 1008.4 hPa | - | - | - | - |
| 1777777986 | 11.11° C | 72% | 1008.6 hPa | - | - | - | - |
| 1777777087 | 11.11° C | 71% | 1008.5 hPa | - | - | - | - |
| 1777776187 | 11.11° C | 73% | 1008.6 hPa | - | - | - | - |
| 1777775287 | 10.56° C | 73% | 1008.7 hPa | - | - | - | - |
| 1777774387 | 10.56° C | 73% | 1008.8 hPa | - | - | - | - |
| 1777769887 | 11.67° C | 68% | 1009.1 hPa | - | - | - | - |
* Rain since midnight (hover to see other rain measurements)
** Current wind speed in m/s (hover to see current wind gust speed)